createdAt,value
2019-01-31T00:00:06.776Z,0.00
2019-01-31T00:01:06.811Z,0.00
2019-01-31T00:02:06.848Z,0.00
2019-01-31T00:03:06.885Z,0.00
2019-01-31T00:04:06.927Z,0.00
2019-01-31T00:05:06.955Z,0.00
2019-01-31T00:06:06.992Z,0.00
2019-01-31T00:07:07.028Z,0.00
2019-01-31T00:08:07.079Z,0.00
2019-01-31T00:09:07.108Z,0.00
2019-01-31T00:10:07.136Z,0.00
2019-01-31T00:11:07.172Z,0.00
2019-01-31T00:12:07.209Z,0.00
2019-01-31T00:13:07.311Z,0.00
2019-01-31T00:14:07.281Z,0.00
2019-01-31T00:15:07.316Z,0.00
2019-01-31T00:16:07.355Z,0.00
2019-01-31T00:17:07.389Z,0.00
2019-01-31T00:18:07.426Z,0.00
2019-01-31T00:19:07.465Z,0.00
2019-01-31T00:20:07.498Z,0.00
2019-01-31T00:21:07.532Z,0.00
2019-01-31T00:22:07.578Z,0.00
2019-01-31T00:23:07.604Z,0.00
2019-01-31T00:24:07.643Z,0.00
2019-01-31T00:25:07.680Z,0.00
2019-01-31T00:26:07.715Z,0.00
2019-01-31T00:27:07.751Z,0.00
2019-01-31T00:28:07.788Z,0.00
2019-01-31T00:29:07.827Z,0.00
2019-01-31T00:30:07.867Z,0.00
2019-01-31T00:31:07.896Z,0.00
2019-01-31T00:32:07.933Z,0.00
2019-01-31T00:33:07.980Z,0.00
2019-01-31T00:34:08.001Z,0.00
2019-01-31T00:35:08.038Z,0.00
2019-01-31T00:36:08.073Z,0.00
2019-01-31T00:37:08.111Z,0.00
2019-01-31T00:38:08.150Z,0.00
2019-01-31T00:39:08.183Z,0.00
2019-01-31T00:40:08.220Z,0.00
2019-01-31T00:41:08.253Z,0.00
2019-01-31T00:42:08.302Z,0.00
2019-01-31T00:43:08.326Z,0.00
2019-01-31T00:44:08.364Z,0.00
2019-01-31T00:45:08.397Z,0.00
2019-01-31T00:46:08.433Z,0.00
2019-01-31T00:47:08.469Z,0.00
2019-01-31T00:48:08.507Z,0.00
2019-01-31T00:49:08.542Z,0.00
2019-01-31T00:50:08.580Z,0.00
2019-01-31T00:51:08.615Z,0.00
2019-01-31T00:52:08.660Z,0.00
2019-01-31T00:53:08.687Z,0.00
2019-01-31T00:54:08.723Z,0.00
2019-01-31T00:55:08.760Z,0.00
2019-01-31T00:56:08.797Z,0.00
2019-01-31T00:57:08.835Z,0.00
2019-01-31T00:58:08.867Z,0.00
2019-01-31T00:59:08.906Z,0.00
2019-01-31T01:00:08.942Z,0.00
2019-01-31T01:01:08.975Z,0.00
2019-01-31T01:02:09.012Z,0.00
2019-01-31T01:03:09.050Z,0.00
2019-01-31T01:04:09.097Z,0.00
2019-01-31T01:05:09.124Z,0.00
2019-01-31T01:06:09.157Z,0.00
2019-01-31T01:07:09.201Z,0.00
2019-01-31T01:08:09.229Z,0.00
2019-01-31T01:09:09.268Z,0.00
2019-01-31T01:10:09.299Z,0.00
2019-01-31T01:11:09.335Z,0.00
2019-01-31T01:12:09.374Z,0.00
2019-01-31T01:13:09.408Z,0.00
2019-01-31T01:14:09.444Z,0.00
2019-01-31T01:15:09.489Z,0.00
2019-01-31T01:16:09.516Z,0.00
2019-01-31T01:17:09.563Z,0.00
2019-01-31T01:18:09.589Z,0.00
2019-01-31T01:19:09.627Z,0.00
2019-01-31T01:20:09.663Z,0.00
2019-01-31T01:21:09.698Z,0.00
2019-01-31T01:22:09.733Z,0.00
2019-01-31T01:23:09.770Z,0.00
2019-01-31T01:24:09.871Z,0.00
2019-01-31T01:25:09.846Z,0.00
2019-01-31T01:26:09.879Z,0.00
2019-01-31T01:27:09.921Z,0.00
2019-01-31T01:28:09.950Z,0.00
2019-01-31T01:29:09.989Z,0.00
2019-01-31T01:30:10.026Z,0.00
2019-01-31T01:31:10.061Z,0.00
2019-01-31T01:32:10.105Z,0.00
2019-01-31T01:33:10.133Z,0.00
2019-01-31T01:34:10.178Z,0.00
2019-01-31T01:35:10.203Z,0.00
2019-01-31T02:26:12.043Z,0.00
2019-01-31T02:27:12.079Z,0.00
2019-01-31T02:28:12.118Z,0.00
2019-01-31T02:29:12.152Z,0.00
2019-01-31T02:30:12.188Z,0.00
2019-01-31T02:31:12.223Z,0.00
2019-01-31T02:32:12.261Z,0.00
2019-01-31T02:33:12.295Z,0.00
2019-01-31T02:34:12.332Z,0.00
2019-01-31T02:35:12.367Z,0.00
2019-01-31T02:36:12.414Z,0.00
2019-01-31T02:37:12.452Z,0.00
2019-01-31T02:38:12.476Z,0.00
2019-01-31T02:39:12.520Z,0.00
2019-01-31T02:40:12.599Z,0.00
2019-01-31T02:41:12.586Z,0.00
2019-01-31T02:42:12.621Z,0.00
2019-01-31T02:43:12.767Z,0.00
2019-01-31T02:44:12.692Z,0.00
2019-01-31T02:45:12.779Z,0.00
2019-01-31T02:46:12.764Z,0.00
2019-01-31T02:47:12.800Z,0.00
2019-01-31T02:48:12.834Z,0.00
2019-01-31T02:49:13.079Z,0.00
2019-01-31T02:50:12.917Z,0.00
2019-01-31T02:51:12.944Z,0.00
2019-01-31T02:52:12.979Z,0.00
2019-01-31T02:53:13.015Z,0.00
2019-01-31T02:54:13.053Z,0.00
2019-01-31T02:55:13.084Z,0.00
2019-01-31T02:56:13.123Z,0.00
2019-01-31T02:57:13.159Z,0.00
2019-01-31T02:58:13.196Z,0.00
2019-01-31T02:59:13.228Z,0.00
2019-01-31T03:00:13.264Z,0.00
2019-01-31T03:01:13.299Z,0.00
2019-01-31T03:02:13.335Z,0.00
2019-01-31T03:03:13.370Z,0.00
2019-01-31T03:04:13.407Z,0.00
2019-01-31T03:05:16.169Z,0.00
2019-01-31T03:06:13.480Z,0.00
2019-01-31T03:07:13.516Z,0.00
2019-01-31T03:08:13.551Z,0.00
2019-01-31T03:09:13.590Z,0.00
2019-01-31T03:10:13.622Z,0.00
2019-01-31T03:11:13.658Z,0.00
2019-01-31T03:12:13.695Z,0.00
2019-01-31T03:13:13.731Z,0.00
2019-01-31T03:14:13.765Z,0.00
2019-01-31T03:15:13.804Z,0.00
2019-01-31T03:16:13.838Z,0.00
2019-01-31T03:17:13.873Z,0.00
2019-01-31T03:18:13.915Z,0.00
2019-01-31T03:19:13.943Z,0.00
2019-01-31T03:20:13.981Z,0.00
2019-01-31T03:21:14.016Z,0.00
2019-01-31T03:22:14.049Z,0.00
2019-01-31T03:23:14.085Z,0.00
2019-01-31T03:24:14.123Z,0.00
2019-01-31T03:25:14.164Z,0.00
2019-01-31T03:26:14.191Z,0.00
2019-01-31T03:27:14.226Z,0.00
2019-01-31T03:28:14.264Z,0.00
2019-01-31T03:29:14.298Z,0.00
2019-01-31T03:30:14.333Z,0.00
2019-01-31T03:31:14.479Z,0.00
2019-01-31T03:32:14.414Z,0.00
2019-01-31T03:33:14.444Z,0.00
2019-01-31T03:34:14.483Z,0.00
2019-01-31T03:35:14.511Z,0.00
2019-01-31T03:36:14.545Z,0.00
2019-01-31T03:37:14.581Z,0.00
2019-01-31T03:38:14.630Z,0.00
2019-01-31T03:39:14.654Z,0.00
2019-01-31T03:40:14.687Z,0.00
2019-01-31T03:41:14.721Z,0.00
2019-01-31T03:42:14.758Z,0.00
2019-01-31T03:43:14.792Z,0.00
2019-01-31T03:44:14.943Z,0.00
2019-01-31T03:45:14.861Z,0.00
2019-01-31T03:46:14.900Z,0.00
2019-01-31T03:47:14.939Z,0.00
2019-01-31T03:48:14.973Z,0.00
2019-01-31T03:49:15.002Z,0.00
2019-01-31T03:50:15.040Z,0.00
2019-01-31T03:51:15.074Z,0.00
2019-01-31T03:52:15.108Z,0.00
2019-01-31T03:53:15.147Z,0.00
2019-01-31T03:54:15.179Z,0.00
2019-01-31T03:55:15.212Z,0.00
2019-01-31T03:56:15.774Z,0.00
2019-01-31T03:57:15.284Z,0.00
2019-01-31T03:58:15.320Z,0.00
2019-01-31T03:59:15.351Z,0.00
2019-01-31T04:00:15.400Z,0.00
2019-01-31T04:01:15.424Z,0.00
2019-01-31T04:02:15.458Z,0.00
2019-01-31T04:03:15.492Z,0.00
2019-01-31T04:04:15.528Z,0.00
2019-01-31T04:05:15.561Z,0.00
2019-01-31T04:06:15.598Z,0.00
2019-01-31T04:07:15.632Z,0.00
2019-01-31T04:08:15.667Z,0.00
2019-01-31T04:09:15.702Z,0.00
2019-01-31T04:10:19.080Z,0.00
2019-01-31T04:11:15.770Z,0.00
2019-01-31T04:12:15.806Z,0.00
2019-01-31T04:13:15.841Z,0.00
2019-01-31T04:14:15.878Z,0.00
2019-01-31T04:15:16.011Z,0.00
2019-01-31T04:16:15.950Z,0.00
2019-01-31T04:17:15.980Z,0.00
2019-01-31T04:18:16.015Z,0.00
2019-01-31T04:19:16.053Z,0.00
2019-01-31T04:20:16.093Z,0.00
2019-01-31T04:21:16.119Z,0.00
2019-01-31T04:22:16.155Z,0.00
2019-01-31T04:23:16.190Z,0.00
2019-01-31T04:24:16.223Z,0.00
2019-01-31T04:25:16.258Z,0.00
2019-01-31T04:26:16.295Z,0.00
2019-01-31T04:27:16.329Z,0.00
2019-01-31T04:28:16.364Z,0.00
2019-01-31T04:29:16.395Z,0.00
2019-01-31T04:30:16.482Z,0.00
2019-01-31T04:31:16.467Z,0.00
2019-01-31T04:32:16.504Z,0.00
2019-01-31T04:33:16.537Z,0.00
2019-01-31T04:34:16.569Z,0.00
2019-01-31T04:35:16.603Z,0.00
2019-01-31T04:36:16.639Z,0.00
2019-01-31T04:37:16.673Z,0.00
2019-01-31T04:38:19.769Z,0.00
2019-01-31T04:39:16.743Z,0.00
2019-01-31T04:40:16.779Z,0.00
2019-01-31T04:41:16.820Z,0.00
2019-01-31T04:42:16.847Z,0.00
2019-01-31T04:43:16.882Z,0.00
2019-01-31T04:44:16.916Z,0.00
2019-01-31T04:45:16.965Z,0.00
2019-01-31T04:46:16.984Z,0.00
2019-01-31T04:47:17.030Z,0.00
2019-01-31T04:48:17.056Z,0.00
2019-01-31T04:49:17.088Z,0.00
2019-01-31T04:50:17.121Z,0.00
2019-01-31T04:51:17.159Z,0.00
2019-01-31T04:52:17.192Z,0.00
2019-01-31T04:53:17.225Z,0.00
2019-01-31T04:54:17.259Z,0.00
2019-01-31T04:55:17.296Z,0.00
2019-01-31T04:56:17.330Z,0.00
2019-01-31T04:57:17.371Z,0.00
2019-01-31T04:58:17.403Z,0.00
2019-01-31T04:59:17.432Z,0.00
2019-01-31T05:00:17.467Z,0.00
2019-01-31T05:01:17.499Z,0.00
2019-01-31T05:02:17.540Z,0.00
2019-01-31T05:03:17.574Z,0.00
2019-01-31T05:04:17.608Z,0.00
2019-01-31T05:05:17.639Z,0.00
2019-01-31T05:06:17.672Z,0.00
2019-01-31T05:07:17.706Z,0.00
2019-01-31T05:08:17.757Z,0.00
2019-01-31T05:09:17.774Z,0.00
2019-01-31T05:10:17.811Z,0.00
2019-01-31T05:11:17.844Z,0.00
2019-01-31T05:12:17.878Z,0.00
2019-01-31T05:13:17.912Z,0.00
2019-01-31T05:14:17.948Z,0.00
2019-01-31T05:15:17.983Z,0.00
2019-01-31T05:16:18.031Z,0.00
2019-01-31T05:17:18.104Z,0.00
2019-01-31T05:18:18.092Z,0.00
2019-01-31T05:19:18.118Z,0.00
2019-01-31T05:20:18.152Z,0.00
2019-01-31T05:21:20.871Z,0.00
2019-01-31T05:22:18.230Z,0.00
2019-01-31T05:23:18.257Z,0.00
2019-01-31T05:24:18.292Z,0.00
2019-01-31T05:25:18.329Z,0.00
2019-01-31T05:26:18.375Z,0.00
2019-01-31T05:27:18.395Z,0.00
2019-01-31T05:28:18.434Z,0.00
2019-01-31T05:29:18.468Z,0.00
2019-01-31T05:30:18.495Z,0.00
2019-01-31T05:31:18.529Z,0.00
2019-01-31T05:32:18.564Z,0.00
2019-01-31T05:33:18.602Z,0.00
2019-01-31T05:34:18.634Z,0.00
2019-01-31T05:35:18.670Z,0.00
2019-01-31T05:36:18.713Z,0.00
2019-01-31T05:37:18.737Z,0.00
2019-01-31T05:38:18.767Z,0.00
2019-01-31T05:39:18.807Z,0.00
2019-01-31T05:40:18.839Z,0.00
2019-01-31T05:41:18.873Z,0.00
2019-01-31T05:42:18.905Z,0.00
2019-01-31T05:43:18.949Z,0.00
2019-01-31T05:44:19.028Z,0.00
2019-01-31T05:45:19.007Z,0.00
2019-01-31T05:46:19.043Z,0.00
2019-01-31T05:47:19.080Z,0.00
2019-01-31T05:48:19.110Z,0.00
2019-01-31T05:49:19.142Z,0.00
2019-01-31T05:50:19.179Z,0.00
2019-01-31T05:51:19.212Z,0.00
2019-01-31T05:52:19.255Z,0.00
2019-01-31T05:53:19.285Z,0.00
2019-01-31T05:54:19.316Z,0.00
2019-01-31T05:55:19.354Z,0.00
2019-01-31T05:56:19.391Z,0.00
2019-01-31T05:57:19.417Z,0.00
2019-01-31T05:58:19.451Z,0.00
2019-01-31T05:59:19.591Z,0.00
2019-01-31T06:00:19.519Z,0.00
2019-01-31T06:01:19.553Z,0.00
2019-01-31T06:02:19.591Z,0.00
2019-01-31T06:03:19.626Z,0.00
2019-01-31T06:04:19.665Z,0.00
2019-01-31T06:05:19.712Z,0.00
2019-01-31T06:06:19.730Z,0.00
2019-01-31T06:07:19.767Z,0.00
2019-01-31T06:08:19.791Z,0.00
2019-01-31T06:09:19.825Z,0.00
2019-01-31T06:10:19.861Z,0.00
2019-01-31T06:11:19.892Z,0.00
2019-01-31T06:12:19.926Z,0.00
2019-01-31T06:13:19.960Z,0.00
2019-01-31T06:14:20.001Z,0.00
2019-01-31T06:15:20.037Z,0.00
2019-01-31T06:16:20.071Z,0.00
2019-01-31T06:17:20.095Z,0.00
2019-01-31T06:18:20.131Z,0.00
2019-01-31T06:19:20.163Z,0.00
2019-01-31T06:20:20.272Z,0.00
2019-01-31T06:21:20.231Z,0.00
2019-01-31T06:22:20.265Z,0.00
2019-01-31T06:23:20.300Z,0.00
2019-01-31T06:24:20.336Z,0.00
2019-01-31T06:25:20.380Z,0.00
2019-01-31T06:26:20.402Z,0.00
2019-01-31T06:27:20.436Z,4.00
2019-01-31T06:28:20.469Z,4.00
2019-01-31T06:29:20.512Z,0.00
2019-01-31T06:30:20.536Z,4.00
2019-01-31T06:31:20.575Z,4.00
2019-01-31T06:32:20.607Z,4.00
2019-01-31T06:33:20.786Z,8.00
2019-01-31T06:34:20.673Z,8.00
2019-01-31T06:35:20.708Z,12.00
2019-01-31T06:36:20.743Z,12.00
2019-01-31T06:37:20.782Z,12.00
2019-01-31T06:38:20.810Z,12.00
2019-01-31T06:39:20.843Z,16.00
2019-01-31T06:40:20.885Z,20.00
2019-01-31T06:41:20.908Z,24.00
2019-01-31T06:42:20.944Z,28.00
2019-01-31T06:43:20.987Z,32.00
2019-01-31T06:44:21.015Z,40.00
2019-01-31T06:45:21.048Z,44.00
2019-01-31T06:46:21.081Z,52.00
2019-01-31T06:47:21.116Z,64.00
2019-01-31T06:48:21.148Z,72.00
2019-01-31T06:49:21.180Z,80.00
2019-01-31T06:50:21.217Z,96.00
2019-01-31T06:51:21.250Z,108.00
2019-01-31T06:52:21.285Z,120.00
2019-01-31T06:53:21.320Z,136.00
2019-01-31T06:54:21.351Z,152.00
2019-01-31T06:55:21.386Z,168.00
2019-01-31T06:56:21.419Z,188.00
2019-01-31T06:57:21.460Z,212.00
2019-01-31T06:58:21.486Z,232.00
2019-01-31T06:59:21.522Z,252.00
2019-01-31T07:00:21.564Z,276.00
2019-01-31T07:01:21.597Z,300.00
2019-01-31T07:02:21.621Z,328.00
2019-01-31T07:03:21.658Z,356.00
2019-01-31T07:04:21.691Z,384.00
2019-01-31T07:05:21.724Z,416.00
2019-01-31T07:06:21.764Z,444.00
2019-01-31T07:07:21.949Z,480.00
2019-01-31T07:08:21.827Z,508.00
2019-01-31T07:09:21.859Z,548.00
2019-01-31T07:10:21.903Z,584.00
2019-01-31T07:11:29.628Z,628.00
2019-01-31T07:12:21.960Z,660.00
2019-01-31T07:13:21.996Z,696.00
2019-01-31T07:14:22.030Z,736.00
2019-01-31T07:15:22.069Z,772.00
2019-01-31T07:16:22.100Z,808.00
2019-01-31T07:17:22.130Z,844.00
2019-01-31T07:18:22.164Z,884.00
2019-01-31T07:19:22.198Z,920.00
2019-01-31T07:20:22.233Z,956.00
2019-01-31T07:21:22.267Z,996.00
2019-01-31T07:22:22.303Z,1032.00
2019-01-31T07:23:22.333Z,1072.00
2019-01-31T07:24:22.367Z,1108.00
2019-01-31T07:25:22.414Z,1148.00
2019-01-31T07:26:22.442Z,1188.00
2019-01-31T07:27:22.472Z,1232.00
2019-01-31T07:28:22.502Z,1272.00
2019-01-31T07:29:22.536Z,1320.00
2019-01-31T07:30:22.569Z,1360.00
2019-01-31T07:31:22.603Z,1404.00
2019-01-31T07:32:22.638Z,1448.00
2019-01-31T07:33:22.938Z,1484.00
2019-01-31T07:34:22.707Z,1516.00
2019-01-31T07:35:22.742Z,1548.00
2019-01-31T07:36:22.777Z,1572.00
2019-01-31T07:37:22.813Z,1604.00
2019-01-31T07:38:22.840Z,1628.00
2019-01-31T07:39:22.880Z,1656.00
2019-01-31T07:40:22.909Z,1684.00
2019-01-31T07:41:22.950Z,1704.00
2019-01-31T07:42:22.976Z,1732.00
2019-01-31T07:43:23.009Z,1752.00
2019-01-31T07:44:23.044Z,1780.00
2019-01-31T07:45:23.084Z,1804.00
2019-01-31T07:46:23.112Z,1828.00
2019-01-31T07:47:23.153Z,1852.00
2019-01-31T07:48:23.185Z,1876.00
2019-01-31T07:49:23.224Z,1900.00
2019-01-31T07:50:23.346Z,1924.00
2019-01-31T07:51:23.286Z,1948.00
2019-01-31T07:52:23.318Z,1972.00
2019-01-31T07:53:23.355Z,1996.00
2019-01-31T07:54:23.385Z,2016.00
2019-01-31T07:55:23.423Z,2040.00
2019-01-31T07:56:23.456Z,2064.00
2019-01-31T07:57:23.484Z,2084.00
2019-01-31T07:58:23.516Z,2108.00
2019-01-31T07:59:23.556Z,2124.00
2019-01-31T08:00:23.589Z,2144.00
2019-01-31T08:01:23.618Z,2168.00
2019-01-31T08:02:23.666Z,2192.00
2019-01-31T08:03:23.687Z,2208.00
2019-01-31T08:04:23.730Z,2232.00
2019-01-31T08:05:23.785Z,2252.00
2019-01-31T08:06:23.787Z,2280.00
2019-01-31T08:07:23.821Z,2300.00
2019-01-31T08:08:23.867Z,2324.00
2019-01-31T08:09:23.888Z,2344.00
2019-01-31T08:10:23.923Z,2372.00
2019-01-31T08:11:23.960Z,2392.00
2019-01-31T08:12:23.991Z,2404.00
2019-01-31T08:13:24.025Z,2424.00
2019-01-31T08:14:24.060Z,2444.00
2019-01-31T08:15:24.095Z,2464.00
2019-01-31T08:16:24.129Z,2484.00
2019-01-31T08:17:24.162Z,2500.00
2019-01-31T08:18:24.195Z,2520.00
2019-01-31T08:19:24.228Z,2536.00
2019-01-31T08:20:24.274Z,2556.00
2019-01-31T08:21:24.298Z,2572.00
2019-01-31T08:22:24.331Z,2592.00
2019-01-31T08:23:24.372Z,2612.00
2019-01-31T08:24:24.401Z,2632.00
2019-01-31T08:25:24.440Z,2644.00
2019-01-31T08:26:24.470Z,2660.00
2019-01-31T08:27:24.537Z,2676.00
2019-01-31T08:28:24.535Z,2684.00
2019-01-31T08:29:24.567Z,2700.00
2019-01-31T08:30:24.602Z,2716.00
2019-01-31T08:31:24.638Z,2720.00
2019-01-31T08:32:24.676Z,2732.00
2019-01-31T08:33:24.705Z,2744.00
2019-01-31T08:34:24.740Z,2760.00
2019-01-31T08:35:24.779Z,2772.00
2019-01-31T08:36:24.807Z,2788.00
2019-01-31T08:37:24.841Z,2796.00
2019-01-31T08:38:24.877Z,2808.00
2019-01-31T08:39:24.908Z,2828.00
2019-01-31T08:40:24.943Z,2832.00
2019-01-31T08:41:24.978Z,2840.00
2019-01-31T08:42:25.013Z,2844.00
2019-01-31T08:43:25.047Z,2852.00
2019-01-31T08:44:25.081Z,2864.00
2019-01-31T08:45:25.114Z,2872.00
2019-01-31T08:46:25.149Z,2876.00
2019-01-31T08:47:25.185Z,2888.00
2019-01-31T08:48:25.219Z,2896.00
2019-01-31T08:49:25.257Z,2904.00
2019-01-31T08:50:27.567Z,2908.00
2019-01-31T08:51:25.321Z,2916.00
2019-01-31T08:52:25.355Z,2928.00
2019-01-31T08:53:25.499Z,2940.00
2019-01-31T08:54:25.424Z,2948.00
2019-01-31T08:55:25.462Z,2964.00
2019-01-31T08:56:25.502Z,2972.00
2019-01-31T08:57:25.526Z,2980.00
2019-01-31T08:58:25.563Z,2988.00
2019-01-31T08:59:25.594Z,2996.00
2019-01-31T09:00:25.631Z,3004.00
2019-01-31T09:01:25.672Z,3012.00
2019-01-31T09:02:25.698Z,3016.00
2019-01-31T09:03:25.828Z,3024.00
2019-01-31T09:04:25.767Z,3032.00
2019-01-31T09:05:25.803Z,3040.00
2019-01-31T09:06:25.842Z,3048.00
2019-01-31T09:07:25.871Z,3056.00
2019-01-31T09:08:25.907Z,3064.00
2019-01-31T09:09:25.939Z,3076.00
2019-01-31T09:10:25.974Z,3088.00
2019-01-31T09:11:26.008Z,3096.00
2019-01-31T09:12:26.043Z,3104.00
2019-01-31T09:13:26.085Z,3116.00
2019-01-31T09:14:26.113Z,3124.00
2019-01-31T09:15:26.147Z,3132.00
2019-01-31T09:16:26.184Z,3140.00
2019-01-31T09:17:26.214Z,3152.00
2019-01-31T09:18:26.255Z,3168.00
2019-01-31T09:19:26.284Z,3184.00
2019-01-31T09:20:26.321Z,3196.00
2019-01-31T09:21:26.354Z,3212.00
2019-01-31T09:22:26.399Z,3224.00
2019-01-31T09:23:26.426Z,3236.00
2019-01-31T09:24:26.467Z,3252.00
2019-01-31T09:25:26.493Z,3264.00
2019-01-31T09:26:26.528Z,3280.00
2019-01-31T09:27:26.574Z,3288.00
2019-01-31T09:28:26.597Z,3288.00
2019-01-31T09:29:26.634Z,3312.00
2019-01-31T09:30:26.716Z,3312.00
2019-01-31T09:31:26.702Z,3308.00
2019-01-31T09:32:26.737Z,3320.00
2019-01-31T09:33:26.772Z,3332.00
2019-01-31T09:34:26.807Z,3340.00
2019-01-31T09:35:26.851Z,3352.00
2019-01-31T09:36:26.879Z,3352.00
2019-01-31T09:37:26.912Z,3356.00
2019-01-31T09:38:26.947Z,3364.00
2019-01-31T09:39:26.979Z,3364.00
2019-01-31T09:40:27.018Z,3368.00
2019-01-31T09:41:27.059Z,3368.00
2019-01-31T09:42:27.085Z,3372.00
2019-01-31T09:43:27.122Z,3368.00
2019-01-31T09:44:27.158Z,3348.00
2019-01-31T09:45:27.188Z,3348.00
2019-01-31T09:46:27.225Z,3356.00
2019-01-31T09:47:27.388Z,3356.00
2019-01-31T09:48:27.295Z,3372.00
2019-01-31T09:49:27.329Z,3384.00
2019-01-31T09:50:28.145Z,3396.00
2019-01-31T09:51:27.407Z,3408.00
2019-01-31T09:52:27.442Z,3416.00
2019-01-31T09:53:27.468Z,3432.00
2019-01-31T09:54:27.562Z,3436.00
2019-01-31T09:55:27.538Z,3444.00
2019-01-31T09:56:27.575Z,3456.00
2019-01-31T09:57:27.609Z,3460.00
2019-01-31T09:58:28.218Z,3464.00
2019-01-31T09:59:27.679Z,3476.00
2019-01-31T10:00:28.008Z,3480.00
2019-01-31T10:01:27.748Z,3484.00
2019-01-31T10:02:27.784Z,3492.00
2019-01-31T10:03:27.819Z,3488.00
2019-01-31T10:04:27.854Z,3496.00
2019-01-31T10:05:27.890Z,3500.00
2019-01-31T10:06:27.929Z,3500.00
2019-01-31T10:07:27.973Z,3512.00
2019-01-31T10:08:27.996Z,3520.00
2019-01-31T10:09:28.030Z,3532.00
2019-01-31T10:10:28.135Z,3532.00
2019-01-31T10:11:28.106Z,3536.00
2019-01-31T10:12:37.885Z,3548.00
2019-01-31T10:13:28.212Z,3552.00
2019-01-31T10:14:28.238Z,3560.00
2019-01-31T10:15:28.273Z,3560.00
2019-01-31T10:16:28.381Z,3556.00
2019-01-31T10:17:28.384Z,3564.00
2019-01-31T10:18:28.425Z,3576.00
2019-01-31T10:19:28.382Z,3576.00
2019-01-31T10:20:28.459Z,3588.00
2019-01-31T10:21:28.630Z,3588.00
2019-01-31T10:22:28.525Z,3588.00
2019-01-31T10:23:28.525Z,3592.00
2019-01-31T10:24:28.560Z,3600.00
2019-01-31T10:25:28.619Z,3580.00
2019-01-31T10:26:28.631Z,3584.00
2019-01-31T10:27:28.668Z,3604.00
2019-01-31T10:28:28.703Z,3612.00
2019-01-31T10:29:28.740Z,3620.00
2019-01-31T10:30:28.782Z,3640.00
2019-01-31T10:31:28.808Z,3652.00
2019-01-31T10:32:28.846Z,3660.00
2019-01-31T10:33:28.878Z,3676.00
2019-01-31T10:34:28.915Z,3704.00
2019-01-31T10:35:28.974Z,3776.00
2019-01-31T10:36:28.984Z,3896.00
2019-01-31T10:37:29.021Z,3956.00
2019-01-31T10:38:29.056Z,3972.00
2019-01-31T10:39:29.093Z,3944.00
2019-01-31T10:40:29.127Z,3912.00
2019-01-31T10:41:29.179Z,3924.00
2019-01-31T10:42:29.200Z,3888.00
2019-01-31T10:43:29.238Z,3856.00
2019-01-31T10:44:29.281Z,3840.00
2019-01-31T10:45:29.307Z,3840.00
2019-01-31T10:46:29.342Z,3848.00
2019-01-31T10:47:29.381Z,3856.00
2019-01-31T10:48:29.414Z,3860.00
2019-01-31T10:49:29.460Z,3912.00
2019-01-31T10:50:29.485Z,3920.00
2019-01-31T10:51:29.520Z,3964.00
2019-01-31T10:52:29.557Z,3992.00
2019-01-31T10:53:29.607Z,3904.00
2019-01-31T10:54:29.625Z,3880.00
2019-01-31T10:55:29.666Z,3812.00
2019-01-31T10:56:29.699Z,3816.00
2019-01-31T10:57:29.732Z,4092.00
2019-01-31T10:58:29.773Z,3996.00
2019-01-31T10:59:29.816Z,4160.00
2019-01-31T11:00:29.842Z,3928.00
2019-01-31T11:01:29.876Z,4056.00
2019-01-31T11:02:29.927Z,4128.00
2019-01-31T11:03:29.952Z,4260.00
2019-01-31T11:04:29.984Z,4220.00
2019-01-31T11:05:30.023Z,4472.00
2019-01-31T11:06:30.056Z,4520.00
2019-01-31T11:07:30.092Z,4256.00
2019-01-31T11:08:30.136Z,4152.00
2019-01-31T11:09:30.163Z,4040.00
2019-01-31T11:10:30.304Z,3968.00
2019-01-31T11:11:30.235Z,3944.00
2019-01-31T11:12:30.272Z,3932.00
2019-01-31T11:13:30.307Z,4036.00
2019-01-31T11:14:30.344Z,4020.00
2019-01-31T11:15:30.380Z,4000.00
2019-01-31T11:16:30.416Z,4008.00
2019-01-31T11:17:30.462Z,3988.00
2019-01-31T11:18:30.487Z,3988.00
2019-01-31T11:19:30.527Z,4056.00
2019-01-31T11:20:30.566Z,4144.00
2019-01-31T11:21:30.605Z,4216.00
2019-01-31T11:22:30.634Z,4220.00
2019-01-31T11:23:30.679Z,4208.00
2019-01-31T11:24:30.705Z,4152.00
2019-01-31T11:25:30.740Z,4192.00
2019-01-31T11:26:30.776Z,4180.00
2019-01-31T11:27:30.824Z,4284.00
2019-01-31T11:28:30.848Z,4460.00
2019-01-31T11:29:30.885Z,4832.00
2019-01-31T11:30:30.920Z,5116.00
2019-01-31T11:31:30.957Z,5364.00
2019-01-31T11:32:31.005Z,5784.00
2019-01-31T11:33:31.029Z,6356.00
2019-01-31T11:34:33.126Z,7028.00
2019-01-31T11:35:31.111Z,7696.00
2019-01-31T11:36:31.147Z,8464.00
2019-01-31T11:37:31.174Z,8916.00
2019-01-31T11:38:31.211Z,9232.00
2019-01-31T11:39:31.254Z,9240.00
2019-01-31T11:40:31.287Z,9020.00
2019-01-31T11:41:31.320Z,8600.00
2019-01-31T11:42:31.356Z,8004.00
2019-01-31T11:43:31.543Z,7488.00
2019-01-31T11:44:31.429Z,7176.00
2019-01-31T11:45:31.469Z,7108.00
2019-01-31T11:46:31.503Z,7224.00
2019-01-31T11:47:31.542Z,7376.00
2019-01-31T11:48:31.579Z,7628.00
2019-01-31T11:49:31.613Z,8116.00
2019-01-31T11:50:31.651Z,8168.00
2019-01-31T11:51:31.688Z,8252.00
2019-01-31T11:52:31.731Z,8304.00
2019-01-31T11:53:31.778Z,8316.00
2019-01-31T11:54:31.800Z,8392.00
2019-01-31T11:55:31.835Z,8492.00
2019-01-31T11:56:31.872Z,8664.00
2019-01-31T11:57:31.907Z,8776.00
2019-01-31T11:58:31.944Z,8916.00
2019-01-31T11:59:31.987Z,8972.00
2019-01-31T12:00:32.017Z,8928.00
2019-01-31T12:01:32.054Z,8856.00
2019-01-31T12:02:32.104Z,8688.00
2019-01-31T12:03:32.129Z,8460.00
2019-01-31T12:04:32.166Z,8216.00
2019-01-31T12:05:32.202Z,8024.00
2019-01-31T12:06:32.241Z,7772.00
2019-01-31T12:07:32.277Z,7588.00
2019-01-31T12:08:32.315Z,7432.00
2019-01-31T12:09:32.357Z,7300.00
2019-01-31T12:10:32.390Z,7136.00
2019-01-31T12:11:32.426Z,7048.00
2019-01-31T12:12:32.464Z,7048.00
2019-01-31T12:13:32.499Z,7060.00
2019-01-31T12:14:32.538Z,7152.00
2019-01-31T12:15:32.579Z,7040.00
2019-01-31T12:16:32.611Z,6864.00
2019-01-31T12:17:32.650Z,6744.00
2019-01-31T12:18:32.686Z,6660.00
2019-01-31T12:19:32.727Z,6628.00
2019-01-31T12:20:32.770Z,6608.00
2019-01-31T12:21:32.796Z,6672.00
2019-01-31T12:22:32.834Z,6992.00
2019-01-31T12:23:32.872Z,7492.00
2019-01-31T12:24:32.910Z,7824.00
2019-01-31T12:25:32.946Z,8052.00
2019-01-31T12:26:32.984Z,8104.00
2019-01-31T12:27:33.019Z,7984.00
2019-01-31T12:28:33.058Z,7908.00
2019-01-31T12:29:33.103Z,7696.00
2019-01-31T12:30:33.141Z,7572.00
2019-01-31T12:31:33.171Z,7524.00
2019-01-31T12:32:33.220Z,7592.00
2019-01-31T12:33:33.254Z,7628.00
2019-01-31T12:34:33.282Z,7688.00
2019-01-31T12:35:33.318Z,7708.00
2019-01-31T12:36:33.355Z,7600.00
2019-01-31T12:37:33.393Z,7628.00
2019-01-31T12:38:36.966Z,7764.00
2019-01-31T12:39:33.467Z,7880.00
2019-01-31T12:40:33.512Z,7840.00
2019-01-31T12:41:33.543Z,7744.00
2019-01-31T12:42:33.580Z,7576.00
2019-01-31T12:43:35.122Z,7396.00
2019-01-31T12:44:33.656Z,7348.00
2019-01-31T12:45:33.692Z,7252.00
2019-01-31T12:46:33.731Z,7096.00
2019-01-31T12:47:33.769Z,7012.00
2019-01-31T12:48:33.806Z,7152.00
2019-01-31T12:49:33.850Z,7384.00
2019-01-31T12:50:33.880Z,7308.00
2019-01-31T12:51:33.924Z,7484.00
2019-01-31T12:52:33.962Z,7980.00
2019-01-31T12:53:33.995Z,8320.00
2019-01-31T12:54:34.042Z,8596.00
2019-01-31T12:55:34.086Z,8804.00
2019-01-31T12:56:34.111Z,9036.00
2019-01-31T12:57:34.148Z,9104.00
2019-01-31T12:58:34.187Z,9224.00
2019-01-31T12:59:34.226Z,9084.00
2019-01-31T13:00:34.263Z,8752.00
2019-01-31T13:01:34.313Z,8520.00
2019-01-31T13:02:34.337Z,8440.00
2019-01-31T13:03:34.373Z,8008.00
2019-01-31T13:04:34.415Z,7668.00
2019-01-31T13:05:34.448Z,7532.00
2019-01-31T13:06:34.486Z,7596.00
2019-01-31T13:07:34.522Z,7716.00
2019-01-31T13:08:34.561Z,7704.00
2019-01-31T13:09:34.606Z,7512.00
2019-01-31T13:10:34.636Z,7400.00
2019-01-31T13:11:34.674Z,7304.00
2019-01-31T13:12:34.713Z,7028.00
2019-01-31T13:13:45.190Z,6756.00
2019-01-31T13:14:34.788Z,6708.00
2019-01-31T13:15:34.900Z,6728.00
2019-01-31T13:16:34.873Z,6524.00
2019-01-31T13:17:34.899Z,6248.00
2019-01-31T13:18:34.940Z,6056.00
2019-01-31T13:19:34.974Z,5948.00
2019-01-31T13:20:35.014Z,5872.00
2019-01-31T13:21:35.052Z,5692.00
2019-01-31T13:22:35.092Z,5448.00
2019-01-31T13:23:35.185Z,5400.00
2019-01-31T13:24:35.166Z,5340.00
2019-01-31T13:25:35.211Z,5384.00
2019-01-31T13:26:35.241Z,5684.00
2019-01-31T13:27:35.281Z,6104.00
2019-01-31T13:28:35.318Z,6704.00
2019-01-31T13:29:35.361Z,7248.00